sensor_id;sensor_type;location;lat;lon;timestamp;temperature;humidity
2050;DHT22;8478;49.208;8.806;2023-04-15T00:01:50;11.60;99.90
2050;DHT22;8478;49.208;8.806;2023-04-15T00:04:16;11.60;99.90
2050;DHT22;8478;49.208;8.806;2023-04-15T00:06:42;11.60;99.90
2050;DHT22;8478;49.208;8.806;2023-04-15T00:09:14;11.60;99.90
2050;DHT22;8478;49.208;8.806;2023-04-15T00:11:39;11.60;99.90
2050;DHT22;8478;49.208;8.806;2023-04-15T00:14:05;11.60;99.90
2050;DHT22;8478;49.208;8.806;2023-04-15T00:16:31;11.60;99.90
2050;DHT22;8478;49.208;8.806;2023-04-15T00:18:57;11.60;99.90
2050;DHT22;8478;49.208;8.806;2023-04-15T00:21:23;11.60;99.90
2050;DHT22;8478;49.208;8.806;2023-04-15T00:23:48;11.60;99.90
2050;DHT22;8478;49.208;8.806;2023-04-15T00:26:17;11.60;99.90
2050;DHT22;8478;49.208;8.806;2023-04-15T00:28:43;11.60;99.90
2050;DHT22;8478;49.208;8.806;2023-04-15T00:31:09;11.60;99.90
2050;DHT22;8478;49.208;8.806;2023-04-15T00:33:35;11.50;99.90
2050;DHT22;8478;49.208;8.806;2023-04-15T00:36:03;11.60;99.90
2050;DHT22;8478;49.208;8.806;2023-04-15T00:38:28;11.50;99.90
2050;DHT22;8478;49.208;8.806;2023-04-15T00:40:55;11.50;99.90
2050;DHT22;8478;49.208;8.806;2023-04-15T00:43:20;11.50;99.90
2050;DHT22;8478;49.208;8.806;2023-04-15T00:45:46;11.50;99.90
2050;DHT22;8478;49.208;8.806;2023-04-15T00:48:12;11.50;99.90
2050;DHT22;8478;49.208;8.806;2023-04-15T00:50:38;11.50;99.90
2050;DHT22;8478;49.208;8.806;2023-04-15T00:53:04;11.50;99.90
2050;DHT22;8478;49.208;8.806;2023-04-15T00:55:30;11.50;99.90
2050;DHT22;8478;49.208;8.806;2023-04-15T00:57:56;11.50;99.90
2050;DHT22;8478;49.208;8.806;2023-04-15T01:00:22;11.50;99.90
2050;DHT22;8478;49.208;8.806;2023-04-15T01:02:49;11.50;99.90
2050;DHT22;8478;49.208;8.806;2023-04-15T01:05:16;11.50;99.90
2050;DHT22;8478;49.208;8.806;2023-04-15T01:07:43;11.50;99.90
2050;DHT22;8478;49.208;8.806;2023-04-15T01:10:09;11.50;99.90
2050;DHT22;8478;49.208;8.806;2023-04-15T01:12:34;11.50;99.90
2050;DHT22;8478;49.208;8.806;2023-04-15T01:15:02;11.40;99.90
2050;DHT22;8478;49.208;8.806;2023-04-15T01:17:28;11.40;99.90
2050;DHT22;8478;49.208;8.806;2023-04-15T01:19:55;11.40;99.90
2050;DHT22;8478;49.208;8.806;2023-04-15T01:22:23;11.40;99.90
2050;DHT22;8478;49.208;8.806;2023-04-15T01:25:24;11.40;99.90
2050;DHT22;8478;49.208;8.806;2023-04-15T01:27:51;11.40;99.90
2050;DHT22;8478;49.208;8.806;2023-04-15T01:30:17;11.40;99.90
2050;DHT22;8478;49.208;8.806;2023-04-15T01:32:43;11.40;99.90
2050;DHT22;8478;49.208;8.806;2023-04-15T01:35:08;11.40;99.90
2050;DHT22;8478;49.208;8.806;2023-04-15T01:37:35;11.40;99.90
2050;DHT22;8478;49.208;8.806;2023-04-15T01:40:02;11.40;99.90
2050;DHT22;8478;49.208;8.806;2023-04-15T01:42:33;11.40;99.90
2050;DHT22;8478;49.208;8.806;2023-04-15T01:44:59;11.40;99.90
2050;DHT22;8478;49.208;8.806;2023-04-15T01:47:29;11.40;99.90
2050;DHT22;8478;49.208;8.806;2023-04-15T01:49:55;11.40;99.90
2050;DHT22;8478;49.208;8.806;2023-04-15T01:52:21;11.40;99.90
2050;DHT22;8478;49.208;8.806;2023-04-15T01:54:46;11.40;99.90
2050;DHT22;8478;49.208;8.806;2023-04-15T01:57:12;11.40;99.90
2050;DHT22;8478;49.208;8.806;2023-04-15T01:59:38;11.40;99.90
2050;DHT22;8478;49.208;8.806;2023-04-15T02:02:03;11.40;99.90
2050;DHT22;8478;49.208;8.806;2023-04-15T02:04:29;11.40;99.90
2050;DHT22;8478;49.208;8.806;2023-04-15T02:06:56;11.40;99.90
2050;DHT22;8478;49.208;8.806;2023-04-15T02:09:21;11.40;99.90
2050;DHT22;8478;49.208;8.806;2023-04-15T02:11:47;11.40;99.90
2050;DHT22;8478;49.208;8.806;2023-04-15T02:14:13;11.40;99.90
2050;DHT22;8478;49.208;8.806;2023-04-15T02:16:39;11.40;99.90
2050;DHT22;8478;49.208;8.806;2023-04-15T02:19:04;11.40;99.90
2050;DHT22;8478;49.208;8.806;2023-04-15T02:21:30;11.40;99.90
2050;DHT22;8478;49.208;8.806;2023-04-15T02:23:56;11.30;99.90
2050;DHT22;8478;49.208;8.806;2023-04-15T02:26:22;11.30;99.90
2050;DHT22;8478;49.208;8.806;2023-04-15T02:28:49;11.30;99.90
2050;DHT22;8478;49.208;8.806;2023-04-15T02:31:16;11.30;99.90
2050;DHT22;8478;49.208;8.806;2023-04-15T02:33:41;11.30;99.90
2050;DHT22;8478;49.208;8.806;2023-04-15T02:36:07;11.30;99.90
2050;DHT22;8478;49.208;8.806;2023-04-15T02:38:34;11.30;99.90
2050;DHT22;8478;49.208;8.806;2023-04-15T02:41:00;11.30;99.90
2050;DHT22;8478;49.208;8.806;2023-04-15T02:43:28;11.30;99.90
2050;DHT22;8478;49.208;8.806;2023-04-15T02:45:56;11.30;99.90
2050;DHT22;8478;49.208;8.806;2023-04-15T02:48:28;11.30;99.90
2050;DHT22;8478;49.208;8.806;2023-04-15T02:51:13;11.30;99.90
2050;DHT22;8478;49.208;8.806;2023-04-15T02:53:41;11.30;99.90
2050;DHT22;8478;49.208;8.806;2023-04-15T02:56:07;11.30;99.90
2050;DHT22;8478;49.208;8.806;2023-04-15T02:58:38;11.30;99.90
2050;DHT22;8478;49.208;8.806;2023-04-15T03:01:04;11.30;99.90
2050;DHT22;8478;49.208;8.806;2023-04-15T03:03:29;11.30;99.90
2050;DHT22;8478;49.208;8.806;2023-04-15T03:05:55;11.30;99.90
2050;DHT22;8478;49.208;8.806;2023-04-15T03:08:21;11.30;99.90
2050;DHT22;8478;49.208;8.806;2023-04-15T03:10:47;11.30;99.90
2050;DHT22;8478;49.208;8.806;2023-04-15T03:13:13;11.30;99.90
2050;DHT22;8478;49.208;8.806;2023-04-15T03:15:39;11.30;99.90
2050;DHT22;8478;49.208;8.806;2023-04-15T03:18:04;11.30;99.90
2050;DHT22;8478;49.208;8.806;2023-04-15T03:20:30;11.30;99.90
2050;DHT22;8478;49.208;8.806;2023-04-15T03:22:56;11.30;99.90
2050;DHT22;8478;49.208;8.806;2023-04-15T03:25:22;11.30;99.90
2050;DHT22;8478;49.208;8.806;2023-04-15T03:27:47;11.20;99.90
2050;DHT22;8478;49.208;8.806;2023-04-15T03:30:13;11.20;99.90
2050;DHT22;8478;49.208;8.806;2023-04-15T03:32:39;11.20;99.90
2050;DHT22;8478;49.208;8.806;2023-04-15T03:35:05;11.20;99.90
2050;DHT22;8478;49.208;8.806;2023-04-15T03:37:30;11.20;99.90
2050;DHT22;8478;49.208;8.806;2023-04-15T03:39:56;11.20;99.90
2050;DHT22;8478;49.208;8.806;2023-04-15T03:42:22;11.20;99.90
2050;DHT22;8478;49.208;8.806;2023-04-15T03:44:48;11.20;99.90
2050;DHT22;8478;49.208;8.806;2023-04-15T03:47:14;11.20;99.90
2050;DHT22;8478;49.208;8.806;2023-04-15T03:49:40;11.20;99.90
2050;DHT22;8478;49.208;8.806;2023-04-15T03:52:05;11.20;99.90
2050;DHT22;8478;49.208;8.806;2023-04-15T03:54:31;11.20;99.90
2050;DHT22;8478;49.208;8.806;2023-04-15T03:56:57;11.20;99.90
2050;DHT22;8478;49.208;8.806;2023-04-15T03:59:22;11.20;99.90
2050;DHT22;8478;49.208;8.806;2023-04-15T04:01:48;11.20;99.90
2050;DHT22;8478;49.208;8.806;2023-04-15T04:04:14;11.20;99.90
2050;DHT22;8478;49.208;8.806;2023-04-15T04:06:40;11.20;99.90
2050;DHT22;8478;49.208;8.806;2023-04-15T04:09:06;11.20;99.90
2050;DHT22;8478;49.208;8.806;2023-04-15T04:11:32;11.20;99.90
2050;DHT22;8478;49.208;8.806;2023-04-15T04:13:57;11.20;99.90
2050;DHT22;8478;49.208;8.806;2023-04-15T04:16:23;11.20;99.90
2050;DHT22;8478;49.208;8.806;2023-04-15T04:18:49;11.20;99.90
2050;DHT22;8478;49.208;8.806;2023-04-15T04:21:15;11.10;99.90
2050;DHT22;8478;49.208;8.806;2023-04-15T04:23:41;11.20;99.90
2050;DHT22;8478;49.208;8.806;2023-04-15T04:26:06;11.20;99.90
2050;DHT22;8478;49.208;8.806;2023-04-15T04:28:32;11.10;99.90
2050;DHT22;8478;49.208;8.806;2023-04-15T04:30:59;11.10;99.90
2050;DHT22;8478;49.208;8.806;2023-04-15T04:33:25;11.10;99.90
2050;DHT22;8478;49.208;8.806;2023-04-15T04:35:51;11.10;99.90
2050;DHT22;8478;49.208;8.806;2023-04-15T04:38:16;11.10;99.90
2050;DHT22;8478;49.208;8.806;2023-04-15T04:40:42;11.10;99.90
2050;DHT22;8478;49.208;8.806;2023-04-15T04:43:08;11.10;99.90
2050;DHT22;8478;49.208;8.806;2023-04-15T04:45:34;11.10;99.90
2050;DHT22;8478;49.208;8.806;2023-04-15T04:48:00;11.10;99.90
2050;DHT22;8478;49.208;8.806;2023-04-15T04:50:26;11.10;99.90
2050;DHT22;8478;49.208;8.806;2023-04-15T04:52:52;11.10;99.90
2050;DHT22;8478;49.208;8.806;2023-04-15T04:55:17;11.10;99.90
2050;DHT22;8478;49.208;8.806;2023-04-15T04:57:43;11.10;99.90
2050;DHT22;8478;49.208;8.806;2023-04-15T05:00:09;11.10;99.90
2050;DHT22;8478;49.208;8.806;2023-04-15T05:02:35;11.10;99.90
2050;DHT22;8478;49.208;8.806;2023-04-15T05:05:01;11.10;99.90
2050;DHT22;8478;49.208;8.806;2023-04-15T05:07:26;11.10;99.90
2050;DHT22;8478;49.208;8.806;2023-04-15T05:09:52;11.10;99.90
2050;DHT22;8478;49.208;8.806;2023-04-15T05:12:18;11.10;99.90
2050;DHT22;8478;49.208;8.806;2023-04-15T05:14:43;11.10;99.90
2050;DHT22;8478;49.208;8.806;2023-04-15T05:17:11;11.10;99.90
2050;DHT22;8478;49.208;8.806;2023-04-15T05:19:36;11.10;99.90
2050;DHT22;8478;49.208;8.806;2023-04-15T05:22:02;11.10;99.90
2050;DHT22;8478;49.208;8.806;2023-04-15T05:24:28;11.00;99.90
2050;DHT22;8478;49.208;8.806;2023-04-15T05:26:54;11.00;99.90
2050;DHT22;8478;49.208;8.806;2023-04-15T05:29:20;11.00;99.90
2050;DHT22;8478;49.208;8.806;2023-04-15T05:31:46;11.10;99.90
2050;DHT22;8478;49.208;8.806;2023-04-15T05:34:12;11.00;99.90
2050;DHT22;8478;49.208;8.806;2023-04-15T05:36:40;11.00;99.90
2050;DHT22;8478;49.208;8.806;2023-04-15T05:39:05;11.00;99.90
2050;DHT22;8478;49.208;8.806;2023-04-15T05:41:31;11.00;99.90
2050;DHT22;8478;49.208;8.806;2023-04-15T05:43:57;11.00;99.90
2050;DHT22;8478;49.208;8.806;2023-04-15T05:46:23;11.00;99.90
2050;DHT22;8478;49.208;8.806;2023-04-15T05:48:48;11.10;99.90
2050;DHT22;8478;49.208;8.806;2023-04-15T05:51:14;11.10;99.90
2050;DHT22;8478;49.208;8.806;2023-04-15T05:53:40;11.00;99.90
2050;DHT22;8478;49.208;8.806;2023-04-15T05:56:06;11.00;99.90
2050;DHT22;8478;49.208;8.806;2023-04-15T05:58:32;11.00;99.90
2050;DHT22;8478;49.208;8.806;2023-04-15T06:00:58;10.90;99.90
2050;DHT22;8478;49.208;8.806;2023-04-15T06:03:23;11.00;99.90
2050;DHT22;8478;49.208;8.806;2023-04-15T06:05:49;11.00;99.90
2050;DHT22;8478;49.208;8.806;2023-04-15T06:08:15;11.00;99.90
2050;DHT22;8478;49.208;8.806;2023-04-15T06:10:41;11.00;99.90
2050;DHT22;8478;49.208;8.806;2023-04-15T06:13:07;11.00;99.90
2050;DHT22;8478;49.208;8.806;2023-04-15T06:15:33;11.00;99.90
2050;DHT22;8478;49.208;8.806;2023-04-15T06:17:58;10.90;99.90
2050;DHT22;8478;49.208;8.806;2023-04-15T06:20:24;10.90;99.90
2050;DHT22;8478;49.208;8.806;2023-04-15T06:22:50;11.00;99.90
2050;DHT22;8478;49.208;8.806;2023-04-15T06:25:15;11.00;99.90
2050;DHT22;8478;49.208;8.806;2023-04-15T06:27:41;11.00;99.90
2050;DHT22;8478;49.208;8.806;2023-04-15T06:30:07;11.00;99.90
2050;DHT22;8478;49.208;8.806;2023-04-15T06:32:33;10.90;99.90
2050;DHT22;8478;49.208;8.806;2023-04-15T06:34:59;10.90;99.90
2050;DHT22;8478;49.208;8.806;2023-04-15T06:37:24;10.90;99.90
2050;DHT22;8478;49.208;8.806;2023-04-15T06:39:50;10.90;99.90
2050;DHT22;8478;49.208;8.806;2023-04-15T06:42:16;10.90;99.90
2050;DHT22;8478;49.208;8.806;2023-04-15T06:44:42;10.90;99.90
2050;DHT22;8478;49.208;8.806;2023-04-15T06:47:07;11.00;99.90
2050;DHT22;8478;49.208;8.806;2023-04-15T06:49:33;10.90;99.90
2050;DHT22;8478;49.208;8.806;2023-04-15T06:52:00;11.00;99.90
2050;DHT22;8478;49.208;8.806;2023-04-15T06:54:26;11.00;99.90
2050;DHT22;8478;49.208;8.806;2023-04-15T06:56:52;11.00;99.90
2050;DHT22;8478;49.208;8.806;2023-04-15T06:59:17;10.90;99.90
2050;DHT22;8478;49.208;8.806;2023-04-15T07:01:43;10.90;99.90
2050;DHT22;8478;49.208;8.806;2023-04-15T07:04:09;10.90;99.90
2050;DHT22;8478;49.208;8.806;2023-04-15T07:06:35;10.90;99.90
2050;DHT22;8478;49.208;8.806;2023-04-15T07:09:01;10.90;99.90
2050;DHT22;8478;49.208;8.806;2023-04-15T07:11:27;10.90;99.90
2050;DHT22;8478;49.208;8.806;2023-04-15T07:13:53;11.00;99.90
2050;DHT22;8478;49.208;8.806;2023-04-15T07:16:19;11.00;99.90
2050;DHT22;8478;49.208;8.806;2023-04-15T07:18:45;11.00;99.90
2050;DHT22;8478;49.208;8.806;2023-04-15T07:21:11;11.00;99.90
2050;DHT22;8478;49.208;8.806;2023-04-15T07:23:37;11.00;99.90
2050;DHT22;8478;49.208;8.806;2023-04-15T07:26:03;11.00;99.90
2050;DHT22;8478;49.208;8.806;2023-04-15T07:28:29;11.00;99.90
2050;DHT22;8478;49.208;8.806;2023-04-15T07:30:55;11.00;99.90
2050;DHT22;8478;49.208;8.806;2023-04-15T07:33:22;11.00;99.90
2050;DHT22;8478;49.208;8.806;2023-04-15T07:35:47;11.00;99.90
2050;DHT22;8478;49.208;8.806;2023-04-15T07:38:15;11.00;99.90
2050;DHT22;8478;49.208;8.806;2023-04-15T07:40:53;11.10;99.90
2050;DHT22;8478;49.208;8.806;2023-04-15T07:43:32;11.10;99.90
2050;DHT22;8478;49.208;8.806;2023-04-15T07:46:00;11.10;99.90
2050;DHT22;8478;49.208;8.806;2023-04-15T07:48:27;11.10;99.90
2050;DHT22;8478;49.208;8.806;2023-04-15T07:51:19;11.10;99.90
2050;DHT22;8478;49.208;8.806;2023-04-15T07:53:46;11.00;99.90
2050;DHT22;8478;49.208;8.806;2023-04-15T07:56:12;11.10;99.90
2050;DHT22;8478;49.208;8.806;2023-04-15T07:58:38;11.10;99.90
2050;DHT22;8478;49.208;8.806;2023-04-15T08:01:04;10.80;99.90
2050;DHT22;8478;49.208;8.806;2023-04-15T08:03:30;11.10;99.90
2050;DHT22;8478;49.208;8.806;2023-04-15T08:05:56;11.10;99.90
2050;DHT22;8478;49.208;8.806;2023-04-15T08:08:22;11.10;99.90
2050;DHT22;8478;49.208;8.806;2023-04-15T08:10:48;11.10;99.90
2050;DHT22;8478;49.208;8.806;2023-04-15T08:13:14;11.10;99.90
2050;DHT22;8478;49.208;8.806;2023-04-15T08:15:40;11.10;99.90
2050;DHT22;8478;49.208;8.806;2023-04-15T08:18:06;11.10;99.90
2050;DHT22;8478;49.208;8.806;2023-04-15T08:20:32;11.10;99.90
2050;DHT22;8478;49.208;8.806;2023-04-15T08:22:58;11.20;99.90
2050;DHT22;8478;49.208;8.806;2023-04-15T08:25:23;11.20;99.90
2050;DHT22;8478;49.208;8.806;2023-04-15T08:27:49;11.10;99.90
2050;DHT22;8478;49.208;8.806;2023-04-15T08:30:15;11.10;99.90
2050;DHT22;8478;49.208;8.806;2023-04-15T08:32:49;11.20;99.90
2050;DHT22;8478;49.208;8.806;2023-04-15T08:35:15;11.20;99.90
2050;DHT22;8478;49.208;8.806;2023-04-15T08:37:41;11.20;99.90
2050;DHT22;8478;49.208;8.806;2023-04-15T08:40:07;11.20;99.90
2050;DHT22;8478;49.208;8.806;2023-04-15T08:42:43;11.20;99.90
2050;DHT22;8478;49.208;8.806;2023-04-15T08:45:11;11.20;99.90
2050;DHT22;8478;49.208;8.806;2023-04-15T08:47:37;11.20;99.90
2050;DHT22;8478;49.208;8.806;2023-04-15T08:50:08;11.20;99.90
2050;DHT22;8478;49.208;8.806;2023-04-15T09:00:48;11.30;99.90
2050;DHT22;8478;49.208;8.806;2023-04-15T09:03:13;11.30;99.90
2050;DHT22;8478;49.208;8.806;2023-04-15T09:05:39;11.30;99.90
2050;DHT22;8478;49.208;8.806;2023-04-15T09:08:05;11.30;99.90
2050;DHT22;8478;49.208;8.806;2023-04-15T09:10:32;11.30;99.90
2050;DHT22;8478;49.208;8.806;2023-04-15T09:12:58;11.30;99.90
2050;DHT22;8478;49.208;8.806;2023-04-15T09:15:24;11.30;99.90
2050;DHT22;8478;49.208;8.806;2023-04-15T09:17:52;11.30;99.90
2050;DHT22;8478;49.208;8.806;2023-04-15T09:20:17;11.30;99.90
2050;DHT22;8478;49.208;8.806;2023-04-15T09:22:45;11.30;99.90
2050;DHT22;8478;49.208;8.806;2023-04-15T09:27:50;11.40;99.90
2050;DHT22;8478;49.208;8.806;2023-04-15T09:30:16;11.40;99.90
2050;DHT22;8478;49.208;8.806;2023-04-15T09:32:58;11.30;99.90
2050;DHT22;8478;49.208;8.806;2023-04-15T09:35:25;11.30;99.90
2050;DHT22;8478;49.208;8.806;2023-04-15T09:37:53;11.40;99.90
2050;DHT22;8478;49.208;8.806;2023-04-15T09:40:33;11.40;99.90
2050;DHT22;8478;49.208;8.806;2023-04-15T09:42:59;11.40;99.90
2050;DHT22;8478;49.208;8.806;2023-04-15T09:45:26;11.40;99.90
2050;DHT22;8478;49.208;8.806;2023-04-15T09:47:52;11.40;99.90
2050;DHT22;8478;49.208;8.806;2023-04-15T09:50:19;11.40;99.90
2050;DHT22;8478;49.208;8.806;2023-04-15T09:52:45;11.40;99.90
2050;DHT22;8478;49.208;8.806;2023-04-15T09:55:12;11.40;99.90
2050;DHT22;8478;49.208;8.806;2023-04-15T09:57:38;11.40;99.90
2050;DHT22;8478;49.208;8.806;2023-04-15T10:00:09;11.40;99.90
2050;DHT22;8478;49.208;8.806;2023-04-15T10:02:46;11.40;99.90
2050;DHT22;8478;49.208;8.806;2023-04-15T10:05:14;11.40;99.90
2050;DHT22;8478;49.208;8.806;2023-04-15T10:07:42;11.40;99.90
2050;DHT22;8478;49.208;8.806;2023-04-15T10:10:09;11.40;99.90
2050;DHT22;8478;49.208;8.806;2023-04-15T10:12:36;11.50;99.90
2050;DHT22;8478;49.208;8.806;2023-04-15T10:15:04;11.50;99.90
2050;DHT22;8478;49.208;8.806;2023-04-15T10:17:31;11.50;99.90
2050;DHT22;8478;49.208;8.806;2023-04-15T10:20:02;11.50;99.90
2050;DHT22;8478;49.208;8.806;2023-04-15T10:22:29;11.50;99.90
2050;DHT22;8478;49.208;8.806;2023-04-15T10:24:55;11.50;99.90
2050;DHT22;8478;49.208;8.806;2023-04-15T10:27:21;11.50;99.90
2050;DHT22;8478;49.208;8.806;2023-04-15T10:29:49;11.50;99.90
2050;DHT22;8478;49.208;8.806;2023-04-15T10:32:18;11.50;99.90
2050;DHT22;8478;49.208;8.806;2023-04-15T10:34:46;11.50;99.90
2050;DHT22;8478;49.208;8.806;2023-04-15T10:37:19;11.50;99.90
2050;DHT22;8478;49.208;8.806;2023-04-15T10:39:45;11.50;99.90
2050;DHT22;8478;49.208;8.806;2023-04-15T10:42:11;11.50;99.90
2050;DHT22;8478;49.208;8.806;2023-04-15T10:44:38;11.50;99.90
2050;DHT22;8478;49.208;8.806;2023-04-15T10:47:13;11.50;99.90
2050;DHT22;8478;49.208;8.806;2023-04-15T10:49:45;11.50;99.90
2050;DHT22;8478;49.208;8.806;2023-04-15T10:52:12;11.60;99.90
2050;DHT22;8478;49.208;8.806;2023-04-15T10:54:39;11.50;99.90
2050;DHT22;8478;49.208;8.806;2023-04-15T11:02:51;11.60;99.90
2050;DHT22;8478;49.208;8.806;2023-04-15T11:05:53;11.60;99.90
2050;DHT22;8478;49.208;8.806;2023-04-15T11:08:52;11.60;99.90
2050;DHT22;8478;49.208;8.806;2023-04-15T11:11:18;11.60;99.90
2050;DHT22;8478;49.208;8.806;2023-04-15T11:13:51;11.60;99.90
2050;DHT22;8478;49.208;8.806;2023-04-15T11:16:17;11.60;99.90
2050;DHT22;8478;49.208;8.806;2023-04-15T11:18:53;11.50;99.90
2050;DHT22;8478;49.208;8.806;2023-04-15T11:21:26;11.60;99.90
2050;DHT22;8478;49.208;8.806;2023-04-15T11:23:52;11.60;99.90
2050;DHT22;8478;49.208;8.806;2023-04-15T11:26:18;11.60;99.90
2050;DHT22;8478;49.208;8.806;2023-04-15T11:28:44;11.60;99.90
2050;DHT22;8478;49.208;8.806;2023-04-15T11:31:12;11.60;99.90
2050;DHT22;8478;49.208;8.806;2023-04-15T11:33:45;11.60;99.90
2050;DHT22;8478;49.208;8.806;2023-04-15T11:36:11;11.60;99.90
2050;DHT22;8478;49.208;8.806;2023-04-15T11:38:37;11.60;99.90
2050;DHT22;8478;49.208;8.806;2023-04-15T11:41:32;11.60;99.90
2050;DHT22;8478;49.208;8.806;2023-04-15T11:44:40;11.60;99.90
2050;DHT22;8478;49.208;8.806;2023-04-15T11:47:22;11.60;99.90
2050;DHT22;8478;49.208;8.806;2023-04-15T11:50:41;11.70;99.90
2050;DHT22;8478;49.208;8.806;2023-04-15T11:53:24;11.60;99.90
2050;DHT22;8478;49.208;8.806;2023-04-15T11:56:31;11.60;99.90
2050;DHT22;8478;49.208;8.806;2023-04-15T11:59:10;11.60;99.90
2050;DHT22;8478;49.208;8.806;2023-04-15T12:02:13;11.60;99.90
2050;DHT22;8478;49.208;8.806;2023-04-15T12:04:39;11.70;99.90
2050;DHT22;8478;49.208;8.806;2023-04-15T12:07:04;11.70;99.90
2050;DHT22;8478;49.208;8.806;2023-04-15T12:09:36;11.70;99.90
2050;DHT22;8478;49.208;8.806;2023-04-15T12:12:02;11.70;99.90
2050;DHT22;8478;49.208;8.806;2023-04-15T12:14:31;11.70;99.90
2050;DHT22;8478;49.208;8.806;2023-04-15T12:17:04;11.70;99.90
2050;DHT22;8478;49.208;8.806;2023-04-15T12:19:41;11.70;99.90
2050;DHT22;8478;49.208;8.806;2023-04-15T12:22:12;11.70;99.90
2050;DHT22;8478;49.208;8.806;2023-04-15T12:24:38;11.70;99.90
2050;DHT22;8478;49.208;8.806;2023-04-15T12:27:10;11.70;99.90
2050;DHT22;8478;49.208;8.806;2023-04-15T12:29:38;11.70;99.90
2050;DHT22;8478;49.208;8.806;2023-04-15T12:32:11;11.70;99.90
2050;DHT22;8478;49.208;8.806;2023-04-15T12:34:39;11.70;99.90
2050;DHT22;8478;49.208;8.806;2023-04-15T12:37:07;11.70;99.90
2050;DHT22;8478;49.208;8.806;2023-04-15T12:39:41;11.70;99.90
2050;DHT22;8478;49.208;8.806;2023-04-15T12:42:08;11.70;99.90
2050;DHT22;8478;49.208;8.806;2023-04-15T12:44:34;11.70;99.90
2050;DHT22;8478;49.208;8.806;2023-04-15T12:47:00;11.70;99.90
2050;DHT22;8478;49.208;8.806;2023-04-15T12:49:26;11.70;99.90
2050;DHT22;8478;49.208;8.806;2023-04-15T12:51:55;11.70;99.90
2050;DHT22;8478;49.208;8.806;2023-04-15T12:54:22;11.70;99.90
2050;DHT22;8478;49.208;8.806;2023-04-15T12:56:49;11.70;99.90
2050;DHT22;8478;49.208;8.806;2023-04-15T12:59:15;11.70;99.90
2050;DHT22;8478;49.208;8.806;2023-04-15T13:01:43;11.70;99.90
2050;DHT22;8478;49.208;8.806;2023-04-15T13:04:09;11.70;99.90
2050;DHT22;8478;49.208;8.806;2023-04-15T13:06:36;11.70;99.90
2050;DHT22;8478;49.208;8.806;2023-04-15T13:09:03;11.70;99.90
2050;DHT22;8478;49.208;8.806;2023-04-15T13:11:41;11.70;99.90
2050;DHT22;8478;49.208;8.806;2023-04-15T13:14:23;11.70;99.90
2050;DHT22;8478;49.208;8.806;2023-04-15T13:17:35;11.70;99.90
2050;DHT22;8478;49.208;8.806;2023-04-15T13:20:12;11.80;99.90
2050;DHT22;8478;49.208;8.806;2023-04-15T13:22:44;11.80;99.90
2050;DHT22;8478;49.208;8.806;2023-04-15T13:25:14;11.80;99.90
2050;DHT22;8478;49.208;8.806;2023-04-15T13:27:52;11.70;99.90
2050;DHT22;8478;49.208;8.806;2023-04-15T13:30:19;11.80;99.90
2050;DHT22;8478;49.208;8.806;2023-04-15T13:32:45;11.70;99.90
2050;DHT22;8478;49.208;8.806;2023-04-15T13:35:11;11.70;99.90
2050;DHT22;8478;49.208;8.806;2023-04-15T13:37:37;11.70;99.90
2050;DHT22;8478;49.208;8.806;2023-04-15T13:40:04;11.70;99.90
2050;DHT22;8478;49.208;8.806;2023-04-15T13:42:31;11.70;99.90
2050;DHT22;8478;49.208;8.806;2023-04-15T13:44:57;11.70;99.90
2050;DHT22;8478;49.208;8.806;2023-04-15T13:47:23;11.70;99.90
2050;DHT22;8478;49.208;8.806;2023-04-15T13:49:48;11.70;99.90
2050;DHT22;8478;49.208;8.806;2023-04-15T13:52:14;11.70;99.90
2050;DHT22;8478;49.208;8.806;2023-04-15T13:54:40;11.80;99.90
2050;DHT22;8478;49.208;8.806;2023-04-15T13:57:05;11.80;99.90
2050;DHT22;8478;49.208;8.806;2023-04-15T13:59:41;11.80;99.90
2050;DHT22;8478;49.208;8.806;2023-04-15T14:02:39;11.80;99.90
2050;DHT22;8478;49.208;8.806;2023-04-15T14:05:52;11.70;99.90
2050;DHT22;8478;49.208;8.806;2023-04-15T14:08:27;11.80;99.90
2050;DHT22;8478;49.208;8.806;2023-04-15T14:10:59;11.80;99.90
2050;DHT22;8478;49.208;8.806;2023-04-15T14:13:39;11.80;99.90
2050;DHT22;8478;49.208;8.806;2023-04-15T14:16:11;11.80;99.90
2050;DHT22;8478;49.208;8.806;2023-04-15T14:18:40;11.80;99.90
2050;DHT22;8478;49.208;8.806;2023-04-15T14:21:48;11.80;99.90
2050;DHT22;8478;49.208;8.806;2023-04-15T14:24:35;11.80;99.90
2050;DHT22;8478;49.208;8.806;2023-04-15T14:27:08;11.80;99.90
2050;DHT22;8478;49.208;8.806;2023-04-15T14:29:35;11.80;99.90
2050;DHT22;8478;49.208;8.806;2023-04-15T14:32:01;11.80;99.90
2050;DHT22;8478;49.208;8.806;2023-04-15T14:34:26;11.80;99.90
2050;DHT22;8478;49.208;8.806;2023-04-15T14:36:52;11.90;99.90
2050;DHT22;8478;49.208;8.806;2023-04-15T14:39:18;11.90;99.90
2050;DHT22;8478;49.208;8.806;2023-04-15T14:41:45;11.90;99.90
2050;DHT22;8478;49.208;8.806;2023-04-15T14:44:11;11.80;99.90
2050;DHT22;8478;49.208;8.806;2023-04-15T14:46:37;11.80;99.90
2050;DHT22;8478;49.208;8.806;2023-04-15T14:49:04;11.80;99.90
2050;DHT22;8478;49.208;8.806;2023-04-15T14:51:32;11.80;99.90
2050;DHT22;8478;49.208;8.806;2023-04-15T14:54:11;11.80;99.90
2050;DHT22;8478;49.208;8.806;2023-04-15T14:56:38;11.80;99.90
2050;DHT22;8478;49.208;8.806;2023-04-15T14:59:04;11.80;99.90
2050;DHT22;8478;49.208;8.806;2023-04-15T15:01:30;11.80;99.90
2050;DHT22;8478;49.208;8.806;2023-04-15T15:03:56;11.80;99.90
2050;DHT22;8478;49.208;8.806;2023-04-15T15:06:22;11.80;99.90
2050;DHT22;8478;49.208;8.806;2023-04-15T15:09:16;11.80;99.90
2050;DHT22;8478;49.208;8.806;2023-04-15T15:12:17;11.80;99.90
2050;DHT22;8478;49.208;8.806;2023-04-15T15:15:14;11.90;99.90
2050;DHT22;8478;49.208;8.806;2023-04-15T15:17:52;11.80;99.90
2050;DHT22;8478;49.208;8.806;2023-04-15T15:20:18;11.80;99.90
2050;DHT22;8478;49.208;8.806;2023-04-15T15:22:43;11.80;99.90
2050;DHT22;8478;49.208;8.806;2023-04-15T15:25:09;11.90;99.90
2050;DHT22;8478;49.208;8.806;2023-04-15T15:27:35;11.90;99.90
2050;DHT22;8478;49.208;8.806;2023-04-15T15:30:02;11.90;99.90
2050;DHT22;8478;49.208;8.806;2023-04-15T15:32:28;11.90;99.90
2050;DHT22;8478;49.208;8.806;2023-04-15T15:34:54;11.90;99.90
2050;DHT22;8478;49.208;8.806;2023-04-15T15:37:19;11.80;99.90
2050;DHT22;8478;49.208;8.806;2023-04-15T15:39:45;11.90;99.90
2050;DHT22;8478;49.208;8.806;2023-04-15T15:42:11;11.80;99.90
2050;DHT22;8478;49.208;8.806;2023-04-15T15:44:36;11.80;99.90
2050;DHT22;8478;49.208;8.806;2023-04-15T15:47:04;11.90;99.90
2050;DHT22;8478;49.208;8.806;2023-04-15T15:49:30;11.90;99.90
2050;DHT22;8478;49.208;8.806;2023-04-15T15:51:55;12.00;99.90
2050;DHT22;8478;49.208;8.806;2023-04-15T15:54:23;12.10;99.90
2050;DHT22;8478;49.208;8.806;2023-04-15T15:56:48;12.10;99.90
2050;DHT22;8478;49.208;8.806;2023-04-15T15:59:14;12.10;99.90
2050;DHT22;8478;49.208;8.806;2023-04-15T16:01:40;12.10;99.90
2050;DHT22;8478;49.208;8.806;2023-04-15T16:04:06;12.10;99.90
2050;DHT22;8478;49.208;8.806;2023-04-15T16:06:32;12.10;99.90
2050;DHT22;8478;49.208;8.806;2023-04-15T16:08:57;12.10;99.90
2050;DHT22;8478;49.208;8.806;2023-04-15T16:11:23;12.10;99.90
2050;DHT22;8478;49.208;8.806;2023-04-15T16:13:48;12.00;99.90
2050;DHT22;8478;49.208;8.806;2023-04-15T16:16:14;12.00;99.90
2050;DHT22;8478;49.208;8.806;2023-04-15T16:19:02;12.00;99.90
2050;DHT22;8478;49.208;8.806;2023-04-15T16:22:25;12.00;99.90
2050;DHT22;8478;49.208;8.806;2023-04-15T16:25:24;12.00;99.90
2050;DHT22;8478;49.208;8.806;2023-04-15T16:28:13;12.00;99.90
2050;DHT22;8478;49.208;8.806;2023-04-15T16:34:56;12.00;99.90